sensor_id;sensor_type;location;lat;lon;timestamp;P1;durP1;ratioP1;P2;durP2;ratioP2
11171;SDS011;5642;50.830;12.082;2022-10-16T00:02:14;0.30;;;0.30;;
11171;SDS011;5642;50.830;12.082;2022-10-16T00:04:40;0.32;;;0.32;;
11171;SDS011;5642;50.830;12.082;2022-10-16T00:07:10;0.30;;;0.30;;
11171;SDS011;5642;50.830;12.082;2022-10-16T00:09:36;0.73;;;0.30;;
11171;SDS011;5642;50.830;12.082;2022-10-16T00:12:02;0.47;;;0.30;;
11171;SDS011;5642;50.830;12.082;2022-10-16T00:14:30;0.20;;;0.20;;
11171;SDS011;5642;50.830;12.082;2022-10-16T00:16:56;0.30;;;0.30;;
11171;SDS011;5642;50.830;12.082;2022-10-16T00:19:30;0.20;;;0.20;;
11171;SDS011;5642;50.830;12.082;2022-10-16T00:21:57;0.20;;;0.20;;
11171;SDS011;5642;50.830;12.082;2022-10-16T00:24:24;0.20;;;0.20;;
11171;SDS011;5642;50.830;12.082;2022-10-16T00:26:50;0.30;;;0.20;;
11171;SDS011;5642;50.830;12.082;2022-10-16T00:29:17;1.25;;;0.30;;
11171;SDS011;5642;50.830;12.082;2022-10-16T00:31:43;0.63;;;0.30;;
11171;SDS011;5642;50.830;12.082;2022-10-16T00:34:19;1.60;;;0.40;;
11171;SDS011;5642;50.830;12.082;2022-10-16T00:36:45;0.68;;;0.65;;
11171;SDS011;5642;50.830;12.082;2022-10-16T00:39:11;0.45;;;0.45;;
11171;SDS011;5642;50.830;12.082;2022-10-16T00:41:37;1.60;;;0.60;;
11171;SDS011;5642;50.830;12.082;2022-10-16T00:44:40;0.32;;;0.32;;
11171;SDS011;5642;50.830;12.082;2022-10-16T00:47:19;0.30;;;0.30;;
11171;SDS011;5642;50.830;12.082;2022-10-16T00:49:50;0.30;;;0.30;;
11171;SDS011;5642;50.830;12.082;2022-10-16T00:52:18;0.40;;;0.38;;
11171;SDS011;5642;50.830;12.082;2022-10-16T00:54:45;0.50;;;0.50;;
11171;SDS011;5642;50.830;12.082;2022-10-16T00:57:14;0.40;;;0.40;;
11171;SDS011;5642;50.830;12.082;2022-10-16T00:59:41;0.20;;;0.20;;
11171;SDS011;5642;50.830;12.082;2022-10-16T01:02:11;0.30;;;0.30;;
11171;SDS011;5642;50.830;12.082;2022-10-16T01:04:47;0.20;;;0.20;;
11171;SDS011;5642;50.830;12.082;2022-10-16T01:13:12;0.30;;;0.30;;
11171;SDS011;5642;50.830;12.082;2022-10-16T01:16:28;1.13;;;0.30;;
11171;SDS011;5642;50.830;12.082;2022-10-16T01:22:03;0.40;;;0.40;;
11171;SDS011;5642;50.830;12.082;2022-10-16T01:24:33;1.58;;;0.40;;
11171;SDS011;5642;50.830;12.082;2022-10-16T01:37:45;0.50;;;0.50;;
11171;SDS011;5642;50.830;12.082;2022-10-16T01:40:21;0.30;;;0.30;;
11171;SDS011;5642;50.830;12.082;2022-10-16T01:42:55;0.40;;;0.40;;
11171;SDS011;5642;50.830;12.082;2022-10-16T01:45:26;0.30;;;0.30;;
11171;SDS011;5642;50.830;12.082;2022-10-16T01:48:05;0.30;;;0.30;;
11171;SDS011;5642;50.830;12.082;2022-10-16T01:50:34;0.40;;;0.40;;
11171;SDS011;5642;50.830;12.082;2022-10-16T01:53:05;0.30;;;0.30;;
11171;SDS011;5642;50.830;12.082;2022-10-16T01:55:35;0.50;;;0.30;;
11171;SDS011;5642;50.830;12.082;2022-10-16T01:58:14;0.40;;;0.40;;
11171;SDS011;5642;50.830;12.082;2022-10-16T02:00:42;0.40;;;0.40;;
11171;SDS011;5642;50.830;12.082;2022-10-16T02:03:11;0.50;;;0.50;;
11171;SDS011;5642;50.830;12.082;2022-10-16T02:05:41;0.30;;;0.30;;
11171;SDS011;5642;50.830;12.082;2022-10-16T02:08:11;0.47;;;0.47;;
11171;SDS011;5642;50.830;12.082;2022-10-16T02:10:42;0.55;;;0.35;;
11171;SDS011;5642;50.830;12.082;2022-10-16T02:13:10;0.20;;;0.20;;
11171;SDS011;5642;50.830;12.082;2022-10-16T02:15:41;0.40;;;0.40;;
11171;SDS011;5642;50.830;12.082;2022-10-16T02:18:07;1.05;;;0.40;;
11171;SDS011;5642;50.830;12.082;2022-10-16T02:20:38;1.27;;;0.40;;
11171;SDS011;5642;50.830;12.082;2022-10-16T02:23:14;1.48;;;0.40;;
11171;SDS011;5642;50.830;12.082;2022-10-16T02:25:46;1.30;;;0.47;;
11171;SDS011;5642;50.830;12.082;2022-10-16T02:28:17;0.40;;;0.40;;
11171;SDS011;5642;50.830;12.082;2022-10-16T02:31:02;0.30;;;0.30;;
11171;SDS011;5642;50.830;12.082;2022-10-16T02:33:34;0.90;;;0.30;;
11171;SDS011;5642;50.830;12.082;2022-10-16T02:36:03;0.35;;;0.35;;
11171;SDS011;5642;50.830;12.082;2022-10-16T02:38:33;0.30;;;0.30;;
11171;SDS011;5642;50.830;12.082;2022-10-16T02:41:00;0.50;;;0.40;;
11171;SDS011;5642;50.830;12.082;2022-10-16T02:43:26;0.30;;;0.30;;
11171;SDS011;5642;50.830;12.082;2022-10-16T02:46:02;0.40;;;0.40;;
11171;SDS011;5642;50.830;12.082;2022-10-16T02:48:28;0.65;;;0.45;;
11171;SDS011;5642;50.830;12.082;2022-10-16T02:50:54;0.55;;;0.40;;
11171;SDS011;5642;50.830;12.082;2022-10-16T02:53:21;0.40;;;0.40;;
11171;SDS011;5642;50.830;12.082;2022-10-16T02:55:47;0.55;;;0.50;;
11171;SDS011;5642;50.830;12.082;2022-10-16T02:58:19;0.30;;;0.30;;
11171;SDS011;5642;50.830;12.082;2022-10-16T03:00:45;0.40;;;0.40;;
11171;SDS011;5642;50.830;12.082;2022-10-16T03:03:18;0.50;;;0.40;;
11171;SDS011;5642;50.830;12.082;2022-10-16T03:05:47;1.40;;;0.55;;
11171;SDS011;5642;50.830;12.082;2022-10-16T03:08:13;0.38;;;0.38;;
11171;SDS011;5642;50.830;12.082;2022-10-16T03:10:40;1.25;;;0.40;;
11171;SDS011;5642;50.830;12.082;2022-10-16T03:13:07;1.17;;;0.30;;
11171;SDS011;5642;50.830;12.082;2022-10-16T03:15:33;0.50;;;0.50;;
11171;SDS011;5642;50.830;12.082;2022-10-16T03:17:59;0.60;;;0.60;;
11171;SDS011;5642;50.830;12.082;2022-10-16T03:20:25;1.00;;;0.50;;
11171;SDS011;5642;50.830;12.082;2022-10-16T03:22:52;0.40;;;0.40;;
11171;SDS011;5642;50.830;12.082;2022-10-16T03:25:18;0.50;;;0.50;;
11171;SDS011;5642;50.830;12.082;2022-10-16T03:27:44;1.30;;;1.00;;
11171;SDS011;5642;50.830;12.082;2022-10-16T03:30:10;0.80;;;0.80;;
11171;SDS011;5642;50.830;12.082;2022-10-16T03:32:38;0.70;;;0.70;;
11171;SDS011;5642;50.830;12.082;2022-10-16T03:35:04;1.00;;;0.90;;
11171;SDS011;5642;50.830;12.082;2022-10-16T03:37:31;1.42;;;0.80;;
11171;SDS011;5642;50.830;12.082;2022-10-16T03:39:57;0.75;;;0.75;;
11171;SDS011;5642;50.830;12.082;2022-10-16T03:42:24;0.57;;;0.57;;
11171;SDS011;5642;50.830;12.082;2022-10-16T03:44:50;0.70;;;0.70;;
11171;SDS011;5642;50.830;12.082;2022-10-16T03:47:16;0.40;;;0.40;;
11171;SDS011;5642;50.830;12.082;2022-10-16T03:49:47;1.73;;;0.60;;
11171;SDS011;5642;50.830;12.082;2022-10-16T03:52:14;0.60;;;0.60;;
11171;SDS011;5642;50.830;12.082;2022-10-16T03:54:40;0.50;;;0.50;;
11171;SDS011;5642;50.830;12.082;2022-10-16T03:57:06;0.70;;;0.70;;
11171;SDS011;5642;50.830;12.082;2022-10-16T03:59:32;0.60;;;0.60;;
11171;SDS011;5642;50.830;12.082;2022-10-16T04:01:58;0.52;;;0.52;;
11171;SDS011;5642;50.830;12.082;2022-10-16T04:04:25;0.60;;;0.60;;
11171;SDS011;5642;50.830;12.082;2022-10-16T04:06:51;0.40;;;0.40;;
11171;SDS011;5642;50.830;12.082;2022-10-16T04:09:18;0.52;;;0.52;;
11171;SDS011;5642;50.830;12.082;2022-10-16T04:11:44;0.50;;;0.50;;
11171;SDS011;5642;50.830;12.082;2022-10-16T04:14:10;0.50;;;0.50;;
11171;SDS011;5642;50.830;12.082;2022-10-16T04:16:43;0.43;;;0.43;;
11171;SDS011;5642;50.830;12.082;2022-10-16T04:19:10;0.50;;;0.50;;
11171;SDS011;5642;50.830;12.082;2022-10-16T04:21:36;1.33;;;0.50;;
11171;SDS011;5642;50.830;12.082;2022-10-16T04:24:03;0.77;;;0.47;;
11171;SDS011;5642;50.830;12.082;2022-10-16T04:26:29;0.40;;;0.40;;
11171;SDS011;5642;50.830;12.082;2022-10-16T04:28:56;0.40;;;0.40;;
11171;SDS011;5642;50.830;12.082;2022-10-16T04:31:22;0.40;;;0.40;;
11171;SDS011;5642;50.830;12.082;2022-10-16T04:33:48;1.52;;;0.50;;
11171;SDS011;5642;50.830;12.082;2022-10-16T04:36:14;0.45;;;0.45;;
11171;SDS011;5642;50.830;12.082;2022-10-16T04:38:40;0.60;;;0.60;;
11171;SDS011;5642;50.830;12.082;2022-10-16T04:41:06;0.50;;;0.50;;
11171;SDS011;5642;50.830;12.082;2022-10-16T04:43:33;0.40;;;0.40;;
11171;SDS011;5642;50.830;12.082;2022-10-16T04:46:00;0.50;;;0.50;;
11171;SDS011;5642;50.830;12.082;2022-10-16T04:48:27;0.55;;;0.55;;
11171;SDS011;5642;50.830;12.082;2022-10-16T04:50:53;0.90;;;0.90;;
11171;SDS011;5642;50.830;12.082;2022-10-16T04:53:19;0.70;;;0.70;;
11171;SDS011;5642;50.830;12.082;2022-10-16T04:55:45;0.70;;;0.70;;
11171;SDS011;5642;50.830;12.082;2022-10-16T04:58:12;0.82;;;0.70;;
11171;SDS011;5642;50.830;12.082;2022-10-16T05:00:38;0.60;;;0.60;;
11171;SDS011;5642;50.830;12.082;2022-10-16T05:03:04;0.50;;;0.50;;
11171;SDS011;5642;50.830;12.082;2022-10-16T05:05:35;0.55;;;0.55;;
11171;SDS011;5642;50.830;12.082;2022-10-16T05:08:02;0.40;;;0.40;;
11171;SDS011;5642;50.830;12.082;2022-10-16T05:10:28;0.50;;;0.50;;
11171;SDS011;5642;50.830;12.082;2022-10-16T05:12:54;0.57;;;0.57;;
11171;SDS011;5642;50.830;12.082;2022-10-16T05:15:24;1.00;;;0.40;;
11171;SDS011;5642;50.830;12.082;2022-10-16T05:17:53;0.55;;;0.55;;
11171;SDS011;5642;50.830;12.082;2022-10-16T05:20:20;0.47;;;0.47;;
11171;SDS011;5642;50.830;12.082;2022-10-16T05:22:47;0.50;;;0.50;;
11171;SDS011;5642;50.830;12.082;2022-10-16T05:25:20;0.35;;;0.35;;
11171;SDS011;5642;50.830;12.082;2022-10-16T05:27:49;1.27;;;0.50;;
11171;SDS011;5642;50.830;12.082;2022-10-16T05:30:16;0.30;;;0.30;;
11171;SDS011;5642;50.830;12.082;2022-10-16T05:32:48;0.35;;;0.35;;
11171;SDS011;5642;50.830;12.082;2022-10-16T05:35:15;0.50;;;0.50;;
11171;SDS011;5642;50.830;12.082;2022-10-16T05:37:43;0.32;;;0.32;;
11171;SDS011;5642;50.830;12.082;2022-10-16T05:40:09;1.02;;;0.70;;
11171;SDS011;5642;50.830;12.082;2022-10-16T05:42:44;1.08;;;0.50;;
11171;SDS011;5642;50.830;12.082;2022-10-16T05:45:18;0.30;;;0.30;;
11171;SDS011;5642;50.830;12.082;2022-10-16T05:47:44;0.60;;;0.60;;
11171;SDS011;5642;50.830;12.082;2022-10-16T05:50:10;0.47;;;0.47;;
11171;SDS011;5642;50.830;12.082;2022-10-16T05:52:38;0.95;;;0.60;;
11171;SDS011;5642;50.830;12.082;2022-10-16T05:55:04;0.30;;;0.30;;
11171;SDS011;5642;50.830;12.082;2022-10-16T05:57:31;0.52;;;0.40;;
11171;SDS011;5642;50.830;12.082;2022-10-16T05:59:57;0.50;;;0.50;;
11171;SDS011;5642;50.830;12.082;2022-10-16T06:02:23;0.40;;;0.40;;
11171;SDS011;5642;50.830;12.082;2022-10-16T06:04:51;0.40;;;0.40;;
11171;SDS011;5642;50.830;12.082;2022-10-16T06:07:19;0.40;;;0.40;;
11171;SDS011;5642;50.830;12.082;2022-10-16T06:09:49;0.47;;;0.47;;
11171;SDS011;5642;50.830;12.082;2022-10-16T06:12:19;0.40;;;0.40;;
11171;SDS011;5642;50.830;12.082;2022-10-16T06:15:20;0.45;;;0.45;;
11171;SDS011;5642;50.830;12.082;2022-10-16T06:17:48;0.93;;;0.50;;
11171;SDS011;5642;50.830;12.082;2022-10-16T06:20:24;0.57;;;0.43;;
11171;SDS011;5642;50.830;12.082;2022-10-16T06:23:00;0.40;;;0.40;;
11171;SDS011;5642;50.830;12.082;2022-10-16T06:25:30;0.40;;;0.40;;
11171;SDS011;5642;50.830;12.082;2022-10-16T06:28:04;0.30;;;0.30;;
11171;SDS011;5642;50.830;12.082;2022-10-16T06:30:31;0.40;;;0.40;;
11171;SDS011;5642;50.830;12.082;2022-10-16T06:32:57;0.80;;;0.60;;
11171;SDS011;5642;50.830;12.082;2022-10-16T06:35:24;0.50;;;0.50;;
11171;SDS011;5642;50.830;12.082;2022-10-16T06:38:15;0.47;;;0.47;;
11171;SDS011;5642;50.830;12.082;2022-10-16T06:40:42;0.40;;;0.40;;
11171;SDS011;5642;50.830;12.082;2022-10-16T06:43:08;0.60;;;0.60;;
11171;SDS011;5642;50.830;12.082;2022-10-16T06:45:40;0.50;;;0.50;;
11171;SDS011;5642;50.830;12.082;2022-10-16T06:48:07;0.40;;;0.40;;
11171;SDS011;5642;50.830;12.082;2022-10-16T06:50:33;0.63;;;0.63;;
11171;SDS011;5642;50.830;12.082;2022-10-16T06:53:02;0.25;;;0.25;;
11171;SDS011;5642;50.830;12.082;2022-10-16T06:55:29;0.60;;;0.60;;
11171;SDS011;5642;50.830;12.082;2022-10-16T06:57:58;0.68;;;0.68;;
11171;SDS011;5642;50.830;12.082;2022-10-16T07:00:47;0.35;;;0.35;;
11171;SDS011;5642;50.830;12.082;2022-10-16T07:03:45;0.30;;;0.30;;
11171;SDS011;5642;50.830;12.082;2022-10-16T07:06:14;0.30;;;0.30;;
11171;SDS011;5642;50.830;12.082;2022-10-16T07:08:44;0.30;;;0.30;;
11171;SDS011;5642;50.830;12.082;2022-10-16T07:11:18;0.80;;;0.40;;
11171;SDS011;5642;50.830;12.082;2022-10-16T07:13:48;0.40;;;0.40;;
11171;SDS011;5642;50.830;12.082;2022-10-16T07:16:19;1.52;;;0.70;;
11171;SDS011;5642;50.830;12.082;2022-10-16T07:18:47;0.43;;;0.43;;
11171;SDS011;5642;50.830;12.082;2022-10-16T07:21:15;0.40;;;0.40;;
11171;SDS011;5642;50.830;12.082;2022-10-16T07:23:51;0.50;;;0.50;;
11171;SDS011;5642;50.830;12.082;2022-10-16T07:26:18;0.40;;;0.40;;
11171;SDS011;5642;50.830;12.082;2022-10-16T07:28:44;1.33;;;0.40;;
11171;SDS011;5642;50.830;12.082;2022-10-16T07:31:14;0.30;;;0.30;;
11171;SDS011;5642;50.830;12.082;2022-10-16T07:33:41;0.38;;;0.38;;
11171;SDS011;5642;50.830;12.082;2022-10-16T07:36:10;0.32;;;0.32;;
11171;SDS011;5642;50.830;12.082;2022-10-16T07:38:40;0.30;;;0.30;;
11171;SDS011;5642;50.830;12.082;2022-10-16T07:41:09;0.30;;;0.30;;
11171;SDS011;5642;50.830;12.082;2022-10-16T07:43:47;0.20;;;0.20;;
11171;SDS011;5642;50.830;12.082;2022-10-16T07:46:26;0.40;;;0.40;;
11171;SDS011;5642;50.830;12.082;2022-10-16T07:48:55;0.40;;;0.40;;
11171;SDS011;5642;50.830;12.082;2022-10-16T07:51:22;0.40;;;0.40;;
11171;SDS011;5642;50.830;12.082;2022-10-16T07:53:50;0.65;;;0.30;;
11171;SDS011;5642;50.830;12.082;2022-10-16T07:56:17;0.32;;;0.32;;
11171;SDS011;5642;50.830;12.082;2022-10-16T07:58:47;0.40;;;0.40;;
11171;SDS011;5642;50.830;12.082;2022-10-16T08:01:17;0.50;;;0.50;;
11171;SDS011;5642;50.830;12.082;2022-10-16T08:03:48;0.30;;;0.30;;
11171;SDS011;5642;50.830;12.082;2022-10-16T08:06:16;0.30;;;0.30;;
11171;SDS011;5642;50.830;12.082;2022-10-16T08:08:47;0.40;;;0.40;;
11171;SDS011;5642;50.830;12.082;2022-10-16T08:11:13;0.50;;;0.50;;
11171;SDS011;5642;50.830;12.082;2022-10-16T08:13:41;0.55;;;0.55;;
11171;SDS011;5642;50.830;12.082;2022-10-16T08:16:17;0.30;;;0.30;;
11171;SDS011;5642;50.830;12.082;2022-10-16T08:18:43;0.47;;;0.47;;
11171;SDS011;5642;50.830;12.082;2022-10-16T08:21:16;0.30;;;0.30;;
11171;SDS011;5642;50.830;12.082;2022-10-16T08:23:52;0.60;;;0.50;;
11171;SDS011;5642;50.830;12.082;2022-10-16T08:26:29;0.73;;;0.60;;
11171;SDS011;5642;50.830;12.082;2022-10-16T08:28:59;0.50;;;0.50;;
11171;SDS011;5642;50.830;12.082;2022-10-16T08:31:28;0.40;;;0.40;;
11171;SDS011;5642;50.830;12.082;2022-10-16T08:33:55;0.63;;;0.63;;
11171;SDS011;5642;50.830;12.082;2022-10-16T08:36:21;0.50;;;0.50;;
11171;SDS011;5642;50.830;12.082;2022-10-16T08:38:48;0.60;;;0.60;;
11171;SDS011;5642;50.830;12.082;2022-10-16T08:43:55;0.70;;;0.70;;
11171;SDS011;5642;50.830;12.082;2022-10-16T08:49:01;0.80;;;0.80;;
11171;SDS011;5642;50.830;12.082;2022-10-16T08:51:30;0.70;;;0.70;;
11171;SDS011;5642;50.830;12.082;2022-10-16T08:53:59;1.65;;;0.80;;
11171;SDS011;5642;50.830;12.082;2022-10-16T08:56:35;0.80;;;0.80;;
11171;SDS011;5642;50.830;12.082;2022-10-16T08:59:24;0.93;;;0.70;;
11171;SDS011;5642;50.830;12.082;2022-10-16T09:01:54;0.57;;;0.57;;
11171;SDS011;5642;50.830;12.082;2022-10-16T09:04:40;0.80;;;0.80;;
11171;SDS011;5642;50.830;12.082;2022-10-16T09:12:40;0.63;;;0.63;;
11171;SDS011;5642;50.830;12.082;2022-10-16T09:15:26;0.50;;;0.50;;
11171;SDS011;5642;50.830;12.082;2022-10-16T09:18:16;0.40;;;0.40;;
11171;SDS011;5642;50.830;12.082;2022-10-16T09:24:13;0.63;;;0.63;;
11171;SDS011;5642;50.830;12.082;2022-10-16T09:26:42;0.63;;;0.63;;
11171;SDS011;5642;50.830;12.082;2022-10-16T09:29:15;0.40;;;0.40;;
11171;SDS011;5642;50.830;12.082;2022-10-16T09:31:50;0.57;;;0.57;;
11171;SDS011;5642;50.830;12.082;2022-10-16T09:34:24;0.63;;;0.50;;
11171;SDS011;5642;50.830;12.082;2022-10-16T09:36:57;0.50;;;0.50;;
11171;SDS011;5642;50.830;12.082;2022-10-16T09:39:30;0.40;;;0.40;;
11171;SDS011;5642;50.830;12.082;2022-10-16T09:42:20;0.50;;;0.50;;
11171;SDS011;5642;50.830;12.082;2022-10-16T09:44:51;0.50;;;0.50;;
11171;SDS011;5642;50.830;12.082;2022-10-16T09:47:29;0.50;;;0.50;;
11171;SDS011;5642;50.830;12.082;2022-10-16T09:50:00;0.65;;;0.65;;
11171;SDS011;5642;50.830;12.082;2022-10-16T09:52:32;0.63;;;0.63;;
11171;SDS011;5642;50.830;12.082;2022-10-16T09:55:00;0.40;;;0.35;;
11171;SDS011;5642;50.830;12.082;2022-10-16T09:57:48;0.43;;;0.43;;
11171;SDS011;5642;50.830;12.082;2022-10-16T10:00:16;0.63;;;0.50;;
11171;SDS011;5642;50.830;12.082;2022-10-16T10:02:45;0.60;;;0.60;;
11171;SDS011;5642;50.830;12.082;2022-10-16T10:05:18;0.55;;;0.45;;
11171;SDS011;5642;50.830;12.082;2022-10-16T10:07:55;0.40;;;0.40;;
11171;SDS011;5642;50.830;12.082;2022-10-16T10:10:32;0.35;;;0.30;;
11171;SDS011;5642;50.830;12.082;2022-10-16T10:13:02;0.40;;;0.40;;
11171;SDS011;5642;50.830;12.082;2022-10-16T10:15:41;0.38;;;0.38;;
11171;SDS011;5642;50.830;12.082;2022-10-16T10:18:17;0.45;;;0.45;;
11171;SDS011;5642;50.830;12.082;2022-10-16T10:20:56;0.50;;;0.50;;
11171;SDS011;5642;50.830;12.082;2022-10-16T10:23:27;0.30;;;0.30;;
11171;SDS011;5642;50.830;12.082;2022-10-16T10:31:14;0.40;;;0.40;;
11171;SDS011;5642;50.830;12.082;2022-10-16T10:33:52;0.50;;;0.50;;
11171;SDS011;5642;50.830;12.082;2022-10-16T10:36:46;0.40;;;0.40;;
11171;SDS011;5642;50.830;12.082;2022-10-16T10:39:43;0.88;;;0.40;;
11171;SDS011;5642;50.830;12.082;2022-10-16T10:42:25;0.40;;;0.40;;
11171;SDS011;5642;50.830;12.082;2022-10-16T10:59:32;0.55;;;0.55;;
11171;SDS011;5642;50.830;12.082;2022-10-16T11:02:09;0.40;;;0.40;;
11171;SDS011;5642;50.830;12.082;2022-10-16T11:07:33;0.38;;;0.38;;
11171;SDS011;5642;50.830;12.082;2022-10-16T11:10:44;0.30;;;0.30;;
11171;SDS011;5642;50.830;12.082;2022-10-16T11:16:27;1.48;;;0.50;;
11171;SDS011;5642;50.830;12.082;2022-10-16T11:19:11;0.30;;;0.30;;
11171;SDS011;5642;50.830;12.082;2022-10-16T11:25:02;0.30;;;0.30;;
11171;SDS011;5642;50.830;12.082;2022-10-16T11:28:34;0.38;;;0.38;;
11171;SDS011;5642;50.830;12.082;2022-10-16T11:36:39;0.50;;;0.50;;
11171;SDS011;5642;50.830;12.082;2022-10-16T11:39:27;0.30;;;0.30;;
11171;SDS011;5642;50.830;12.082;2022-10-16T11:42:09;0.47;;;0.45;;
11171;SDS011;5642;50.830;12.082;2022-10-16T11:47:33;0.63;;;0.63;;
11171;SDS011;5642;50.830;12.082;2022-10-16T11:50:03;0.30;;;0.30;;
11171;SDS011;5642;50.830;12.082;2022-10-16T11:53:15;0.32;;;0.32;;
11171;SDS011;5642;50.830;12.082;2022-10-16T11:55:50;0.40;;;0.40;;
11171;SDS011;5642;50.830;12.082;2022-10-16T11:58:22;0.32;;;0.30;;
11171;SDS011;5642;50.830;12.082;2022-10-16T12:04:02;0.45;;;0.45;;
11171;SDS011;5642;50.830;12.082;2022-10-16T12:07:07;0.40;;;0.40;;
11171;SDS011;5642;50.830;12.082;2022-10-16T12:09:38;0.30;;;0.30;;
11171;SDS011;5642;50.830;12.082;2022-10-16T12:12:27;0.20;;;0.20;;
11171;SDS011;5642;50.830;12.082;2022-10-16T12:17:56;0.50;;;0.50;;
11171;SDS011;5642;50.830;12.082;2022-10-16T12:20:25;0.47;;;0.47;;
11171;SDS011;5642;50.830;12.082;2022-10-16T12:22:54;0.40;;;0.40;;
11171;SDS011;5642;50.830;12.082;2022-10-16T12:25:29;0.50;;;0.50;;
11171;SDS011;5642;50.830;12.082;2022-10-16T12:27:58;1.75;;;0.40;;
11171;SDS011;5642;50.830;12.082;2022-10-16T12:30:25;0.60;;;0.50;;
11171;SDS011;5642;50.830;12.082;2022-10-16T12:35:59;0.40;;;0.40;;
11171;SDS011;5642;50.830;12.082;2022-10-16T12:38:38;0.30;;;0.30;;
11171;SDS011;5642;50.830;12.082;2022-10-16T12:41:23;0.32;;;0.32;;
11171;SDS011;5642;50.830;12.082;2022-10-16T12:44:00;0.20;;;0.20;;
11171;SDS011;5642;50.830;12.082;2022-10-16T12:51:37;0.40;;;0.40;;
11171;SDS011;5642;50.830;12.082;2022-10-16T12:54:16;0.40;;;0.40;;
11171;SDS011;5642;50.830;12.082;2022-10-16T13:05:32;0.30;;;0.30;;
11171;SDS011;5642;50.830;12.082;2022-10-16T13:21:46;0.28;;;0.28;;
11171;SDS011;5642;50.830;12.082;2022-10-16T13:30:30;0.52;;;0.40;;
11171;SDS011;5642;50.830;12.082;2022-10-16T13:33:18;0.20;;;0.20;;
11171;SDS011;5642;50.830;12.082;2022-10-16T13:35:51;0.32;;;0.32;;
11171;SDS011;5642;50.830;12.082;2022-10-16T13:38:25;0.30;;;0.30;;
11171;SDS011;5642;50.830;12.082;2022-10-16T13:40:55;0.30;;;0.30;;
11171;SDS011;5642;50.830;12.082;2022-10-16T13:43:32;0.40;;;0.40;;
11171;SDS011;5642;50.830;12.082;2022-10-16T13:46:25;0.30;;;0.30;;
11171;SDS011;5642;50.830;12.082;2022-10-16T13:49:05;0.50;;;0.50;;
11171;SDS011;5642;50.830;12.082;2022-10-16T13:51:53;0.65;;;0.40;;
11171;SDS011;5642;50.830;12.082;2022-10-16T13:54:27;0.50;;;0.50;;
11171;SDS011;5642;50.830;12.082;2022-10-16T13:57:04;0.52;;;0.43;;
11171;SDS011;5642;50.830;12.082;2022-10-16T13:59:34;0.43;;;0.43;;
11171;SDS011;5642;50.830;12.082;2022-10-16T14:02:05;0.55;;;0.55;;
11171;SDS011;5642;50.830;12.082;2022-10-16T14:04:46;0.32;;;0.32;;
11171;SDS011;5642;50.830;12.082;2022-10-16T14:07:13;1.35;;;0.40;;
11171;SDS011;5642;50.830;12.082;2022-10-16T14:09:50;0.50;;;0.50;;
11171;SDS011;5642;50.830;12.082;2022-10-16T14:12:19;0.30;;;0.30;;
11171;SDS011;5642;50.830;12.082;2022-10-16T14:14:47;0.43;;;0.38;;
11171;SDS011;5642;50.830;12.082;2022-10-16T14:17:32;0.32;;;0.32;;
11171;SDS011;5642;50.830;12.082;2022-10-16T14:20:02;0.20;;;0.20;;
11171;SDS011;5642;50.830;12.082;2022-10-16T14:22:32;0.20;;;0.20;;
11171;SDS011;5642;50.830;12.082;2022-10-16T14:25:01;0.20;;;0.20;;
11171;SDS011;5642;50.830;12.082;2022-10-16T14:27:40;0.20;;;0.20;;
11171;SDS011;5642;50.830;12.082;2022-10-16T14:30:17;0.43;;;0.40;;
11171;SDS011;5642;50.830;12.082;2022-10-16T14:33:02;0.55;;;0.55;;
11171;SDS011;5642;50.830;12.082;2022-10-16T14:35:34;0.35;;;0.35;;
11171;SDS011;5642;50.830;12.082;2022-10-16T14:38:04;0.20;;;0.20;;
11171;SDS011;5642;50.830;12.082;2022-10-16T14:40:56;0.40;;;0.40;;
11171;SDS011;5642;50.830;12.082;2022-10-16T14:43:40;0.38;;;0.38;;
11171;SDS011;5642;50.830;12.082;2022-10-16T14:46:18;0.50;;;0.50;;
11171;SDS011;5642;50.830;12.082;2022-10-16T14:49:19;0.60;;;0.60;;
11171;SDS011;5642;50.830;12.082;2022-10-16T14:52:08;0.50;;;0.50;;
11171;SDS011;5642;50.830;12.082;2022-10-16T14:54:38;0.40;;;0.40;;
11171;SDS011;5642;50.830;12.082;2022-10-16T14:57:04;0.47;;;0.47;;
11171;SDS011;5642;50.830;12.082;2022-10-16T15:02:54;0.40;;;0.40;;
11171;SDS011;5642;50.830;12.082;2022-10-16T15:05:26;0.40;;;0.40;;
11171;SDS011;5642;50.830;12.082;2022-10-16T15:08:02;0.45;;;0.45;;
11171;SDS011;5642;50.830;12.082;2022-10-16T15:10:30;0.73;;;0.73;;
11171;SDS011;5642;50.830;12.082;2022-10-16T15:13:12;0.98;;;0.90;;
11171;SDS011;5642;50.830;12.082;2022-10-16T15:15:42;0.90;;;0.90;;
11171;SDS011;5642;50.830;12.082;2022-10-16T15:18:10;0.90;;;0.90;;
11171;SDS011;5642;50.830;12.082;2022-10-16T15:20:37;0.60;;;0.60;;
11171;SDS011;5642;50.830;12.082;2022-10-16T15:23:05;0.73;;;0.73;;
11171;SDS011;5642;50.830;12.082;2022-10-16T15:25:55;0.70;;;0.70;;
11171;SDS011;5642;50.830;12.082;2022-10-16T15:28:23;3.63;;;3.00;;
11171;SDS011;5642;50.830;12.082;2022-10-16T15:30:56;3.10;;;2.80;;
11171;SDS011;5642;50.830;12.082;2022-10-16T15:33:24;2.17;;;1.90;;
11171;SDS011;5642;50.830;12.082;2022-10-16T15:35:58;1.60;;;1.50;;
11171;SDS011;5642;50.830;12.082;2022-10-16T15:38:25;1.17;;;1.10;;
11171;SDS011;5642;50.830;12.082;2022-10-16T15:41:00;0.90;;;0.90;;
11171;SDS011;5642;50.830;12.082;2022-10-16T15:43:27;0.93;;;0.93;;
11171;SDS011;5642;50.830;12.082;2022-10-16T15:45:58;0.93;;;0.88;;
11171;SDS011;5642;50.830;12.082;2022-10-16T15:48:39;0.80;;;0.80;;
11171;SDS011;5642;50.830;12.082;2022-10-16T15:51:08;0.50;;;0.50;;
11171;SDS011;5642;50.830;12.082;2022-10-16T15:53:35;0.60;;;0.60;;
11171;SDS011;5642;50.830;12.082;2022-10-16T15:56:08;0.75;;;0.70;;
11171;SDS011;5642;50.830;12.082;2022-10-16T15:58:47;0.95;;;0.70;;
11171;SDS011;5642;50.830;12.082;2022-10-16T16:01:13;1.55;;;0.73;;
11171;SDS011;5642;50.830;12.082;2022-10-16T16:03:40;0.70;;;0.70;;
11171;SDS011;5642;50.830;12.082;2022-10-16T16:06:12;0.50;;;0.50;;
11171;SDS011;5642;50.830;12.082;2022-10-16T16:08:46;0.80;;;0.80;;
11171;SDS011;5642;50.830;12.082;2022-10-16T16:11:15;0.70;;;0.70;;
11171;SDS011;5642;50.830;12.082;2022-10-16T16:13:51;0.70;;;0.70;;
11171;SDS011;5642;50.830;12.082;2022-10-16T16:16:20;0.63;;;0.63;;
11171;SDS011;5642;50.830;12.082;2022-10-16T16:18:47;1.40;;;0.70;;
11171;SDS011;5642;50.830;12.082;2022-10-16T16:21:14;0.70;;;0.70;;
11171;SDS011;5642;50.830;12.082;2022-10-16T16:23:41;0.68;;;0.65;;
11171;SDS011;5642;50.830;12.082;2022-10-16T16:26:27;0.60;;;0.60;;
11171;SDS011;5642;50.830;12.082;2022-10-16T16:29:00;0.50;;;0.50;;
11171;SDS011;5642;50.830;12.082;2022-10-16T16:31:27;0.57;;;0.50;;
11171;SDS011;5642;50.830;12.082;2022-10-16T16:33:55;1.52;;;0.47;;
11171;SDS011;5642;50.830;12.082;2022-10-16T16:36:22;0.38;;;0.38;;
11171;SDS011;5642;50.830;12.082;2022-10-16T16:38:49;0.50;;;0.50;;
11171;SDS011;5642;50.830;12.082;2022-10-16T16:41:17;0.63;;;0.63;;
11171;SDS011;5642;50.830;12.082;2022-10-16T16:43:49;1.02;;;1.02;;
11171;SDS011;5642;50.830;12.082;2022-10-16T16:46:18;0.90;;;0.90;;
11171;SDS011;5642;50.830;12.082;2022-10-16T16:48:45;0.60;;;0.60;;
11171;SDS011;5642;50.830;12.082;2022-10-16T16:51:15;0.77;;;0.77;;
11171;SDS011;5642;50.830;12.082;2022-10-16T16:53:44;0.70;;;0.70;;
11171;SDS011;5642;50.830;12.082;2022-10-16T16:56:16;0.60;;;0.60;;
11171;SDS011;5642;50.830;12.082;2022-10-16T16:58:50;0.80;;;0.80;;
11171;SDS011;5642;50.830;12.082;2022-10-16T17:01:18;0.75;;;0.70;;
11171;SDS011;5642;50.830;12.082;2022-10-16T17:03:47;0.70;;;0.70;;
11171;SDS011;5642;50.830;12.082;2022-10-16T17:06:19;0.70;;;0.70;;
11171;SDS011;5642;50.830;12.082;2022-10-16T17:08:47;0.70;;;0.70;;
11171;SDS011;5642;50.830;12.082;2022-10-16T17:11:16;1.05;;;1.00;;
11171;SDS011;5642;50.830;12.082;2022-10-16T17:13:46;0.70;;;0.70;;
11171;SDS011;5642;50.830;12.082;2022-10-16T17:16:13;0.70;;;0.70;;